createdAt,value
2019-03-21T00:01:58.028Z,101650.09
2019-03-21T00:04:31.071Z,101653.13
2019-03-21T00:07:04.577Z,101643.58
2019-03-21T00:10:21.078Z,101651.86
2019-03-21T00:16:43.988Z,101644.52
2019-03-21T00:19:17.016Z,101628.92
2019-03-21T00:21:50.098Z,101623.30
2019-03-21T00:24:23.488Z,101620.25
2019-03-21T00:26:56.788Z,101629.81
2019-03-21T00:29:30.026Z,101628.50
2019-03-21T00:32:04.128Z,101636.33
2019-03-21T00:34:37.112Z,101632.42
2019-03-21T00:37:10.147Z,101634.17
2019-03-21T00:39:43.131Z,101633.73
2019-03-21T00:42:16.298Z,101631.56
2019-03-21T00:44:49.288Z,101641.53
2019-03-21T00:47:22.428Z,101632.02
2019-03-21T00:49:55.911Z,101622.89
2019-03-21T00:52:28.918Z,101621.17
2019-03-21T00:55:01.919Z,101624.22
2019-03-21T00:57:34.788Z,101626.37
2019-03-21T01:00:09.181Z,101619.84
2019-03-21T01:02:43.122Z,101607.70
2019-03-21T01:05:16.118Z,101607.70
2019-03-21T01:07:49.218Z,101623.75
2019-03-21T01:10:24.069Z,101624.18
2019-03-21T01:12:57.177Z,101618.98
2019-03-21T01:15:30.228Z,101617.67
2019-03-21T01:18:03.288Z,101615.95
2019-03-21T01:20:36.329Z,101606.41
2019-03-21T01:23:09.396Z,101608.14
2019-03-21T01:25:48.318Z,101605.97
2019-03-21T01:28:21.227Z,101600.73
2019-03-21T01:30:54.228Z,101613.75
2019-03-21T01:33:27.178Z,101609.85
2019-03-21T01:36:00.336Z,101611.58
2019-03-21T01:38:33.358Z,101602.92
2019-03-21T01:41:06.528Z,101589.87
2019-03-21T01:43:39.347Z,101586.84
2019-03-21T01:46:13.079Z,101581.17
2019-03-21T01:48:46.017Z,101569.91
2019-03-21T01:51:19.407Z,101580.33
2019-03-21T01:53:52.679Z,101574.23
2019-03-21T01:56:26.136Z,101572.48
2019-03-21T01:59:00.390Z,101572.06
2019-03-21T02:01:33.778Z,101570.76
2019-03-21T02:04:06.898Z,101586.39
2019-03-21T02:06:40.193Z,101589.42
2019-03-21T02:09:13.668Z,101591.98
2019-03-21T02:11:46.963Z,101595.05
2019-03-21T02:14:20.098Z,101601.56
2019-03-21T02:16:53.239Z,101590.72
2019-03-21T02:19:26.628Z,101597.66
2019-03-21T02:22:00.994Z,101583.75
2019-03-21T02:24:34.088Z,101579.84
2019-03-21T02:27:07.277Z,101579.84
2019-03-21T02:29:40.310Z,101574.63
2019-03-21T02:32:13.247Z,101578.55
2019-03-21T02:34:46.296Z,101574.17
2019-03-21T02:37:19.387Z,101572.45
2019-03-21T02:39:59.422Z,101565.05
2019-03-21T02:42:27.098Z,101555.05
2019-03-21T02:45:08.395Z,101553.30
2019-03-21T02:47:35.399Z,101541.56
2019-03-21T02:50:11.358Z,101552.41
2019-03-21T02:52:44.626Z,101550.69
2019-03-21T02:55:17.711Z,101549.80
2019-03-21T02:57:51.051Z,101545.47
2019-03-21T03:00:25.389Z,101540.26
2019-03-21T03:02:59.728Z,101544.59
2019-03-21T03:05:33.182Z,101546.31
2019-03-21T03:08:06.900Z,101548.50
2019-03-21T03:10:45.811Z,101555.44
2019-03-21T03:13:19.148Z,101556.32
2019-03-21T03:15:53.332Z,101550.23
2019-03-21T03:18:26.559Z,101560.23
2019-03-21T03:20:59.720Z,101558.92
2019-03-21T03:23:33.160Z,101566.74
2019-03-21T03:26:06.276Z,101564.13
2019-03-21T03:28:39.923Z,101562.80
2019-03-21T03:31:13.480Z,101569.73
2019-03-21T03:33:46.752Z,101577.97
2019-03-21T03:36:19.886Z,101575.36
2019-03-21T03:38:53.016Z,101572.33
2019-03-21T03:41:26.234Z,101576.63
2019-03-21T03:43:59.458Z,101578.34
2019-03-21T03:46:33.469Z,101577.05
2019-03-21T03:49:07.237Z,101582.25
2019-03-21T03:51:40.177Z,101588.31
2019-03-21T03:54:13.172Z,101586.17
2019-03-21T03:56:46.421Z,101570.52
2019-03-21T03:59:19.519Z,101583.56
2019-03-21T04:01:52.760Z,101584.44
2019-03-21T04:04:25.983Z,101586.21
2019-03-21T04:06:59.170Z,101589.66
2019-03-21T04:09:32.576Z,101590.13
2019-03-21T04:12:05.779Z,101591.42
2019-03-21T04:14:39.010Z,101591.43
2019-03-21T04:17:12.117Z,101596.22
2019-03-21T04:19:45.198Z,101596.64
2019-03-21T04:22:18.402Z,101594.92
2019-03-21T04:24:51.288Z,101596.68
2019-03-21T04:27:24.479Z,101598.86
2019-03-21T04:29:57.809Z,101600.59
2019-03-21T04:32:32.100Z,101596.72
2019-03-21T04:35:05.397Z,101600.16
2019-03-21T04:37:38.800Z,101598.44
2019-03-21T04:40:12.968Z,101597.59
2019-03-21T04:42:46.098Z,101598.48
2019-03-21T04:45:21.048Z,101604.56
2019-03-21T04:47:54.868Z,101607.17
2019-03-21T04:50:28.858Z,101607.63
2019-03-21T04:53:02.079Z,101611.54
2019-03-21T04:55:35.168Z,101616.30
2019-03-21T04:58:08.348Z,101615.02
2019-03-21T05:00:41.502Z,101605.48
2019-03-21T05:03:14.786Z,101614.59
2019-03-21T05:05:48.427Z,101613.72
2019-03-21T05:08:21.648Z,101621.11
2019-03-21T05:10:54.889Z,101619.34
2019-03-21T05:13:28.178Z,101620.23
2019-03-21T05:16:01.318Z,101623.29
2019-03-21T05:18:36.909Z,101631.95
2019-03-21T05:21:10.620Z,101626.73
2019-03-21T05:23:43.791Z,101630.23
2019-03-21T05:26:17.013Z,101621.98
2019-03-21T05:28:50.297Z,101631.10
2019-03-21T05:31:27.178Z,101633.25
2019-03-21T05:34:01.068Z,101635.86
2019-03-21T05:36:34.061Z,101637.16
2019-03-21T05:39:09.756Z,101641.06
2019-03-21T05:41:43.086Z,101635.86
2019-03-21T05:44:26.648Z,101639.34
2019-03-21T05:47:07.318Z,101641.07
2019-03-21T05:49:57.181Z,101638.89
2019-03-21T05:52:40.271Z,101635.86
2019-03-21T05:55:20.476Z,101638.47
2019-03-21T05:57:55.407Z,101647.17
2019-03-21T06:00:36.447Z,101648.89
2019-03-21T06:06:41.138Z,101645.41
2019-03-21T06:09:29.849Z,101647.17
2019-03-21T06:15:46.809Z,101653.66
2019-03-21T06:18:54.365Z,101650.59
2019-03-21T06:21:46.629Z,101639.75
2019-03-21T06:24:31.018Z,101650.14
2019-03-21T06:27:14.755Z,101644.94
2019-03-21T06:29:46.638Z,101645.78
2019-03-21T06:32:19.968Z,101649.66
2019-03-21T06:34:53.282Z,101649.66
2019-03-21T06:37:28.601Z,101646.59
2019-03-21T06:40:01.887Z,101654.84
2019-03-21T06:42:35.079Z,101655.27
2019-03-21T06:45:08.328Z,101653.08
2019-03-21T06:47:41.588Z,101655.69
2019-03-21T06:50:14.885Z,101652.16
2019-03-21T06:52:48.264Z,101651.70
2019-03-21T06:55:21.404Z,101649.05
2019-03-21T06:57:54.695Z,101642.89
2019-03-21T07:00:27.785Z,101647.22
2019-03-21T07:03:01.096Z,101646.75
2019-03-21T07:05:34.335Z,101654.98
2019-03-21T07:08:07.932Z,101651.02
2019-03-21T07:10:41.164Z,101657.13
2019-03-21T07:13:14.603Z,101664.03
2019-03-21T07:15:47.895Z,101658.38
2019-03-21T07:18:22.216Z,101652.26
2019-03-21T07:20:55.250Z,101658.73
2019-03-21T07:23:29.375Z,101658.73
2019-03-21T07:26:06.719Z,101661.75
2019-03-21T07:28:40.265Z,101667.81
2019-03-21T07:31:13.706Z,101670.88
2019-03-21T07:33:47.665Z,101673.05
2019-03-21T07:36:22.728Z,101674.80
2019-03-21T07:38:55.914Z,101678.73
2019-03-21T07:41:29.294Z,101680.47
2019-03-21T07:44:02.594Z,101677.49
2019-03-21T07:46:35.682Z,101690.59
2019-03-21T07:49:12.128Z,101690.17
2019-03-21T07:51:45.662Z,101692.37
2019-03-21T07:54:20.595Z,101692.37
2019-03-21T07:56:53.726Z,101693.67
2019-03-21T07:59:27.027Z,101685.80
2019-03-21T08:02:03.915Z,101685.80
2019-03-21T08:04:50.461Z,101691.44
2019-03-21T08:11:06.181Z,101684.84
2019-03-21T08:13:39.176Z,101687.33
2019-03-21T08:20:26.195Z,101684.59
2019-03-21T08:23:21.669Z,101684.09
2019-03-21T08:25:57.883Z,101687.13
2019-03-21T08:28:33.784Z,101678.86
2019-03-21T08:34:03.774Z,101677.13
2019-03-21T08:36:36.715Z,101685.34
2019-03-21T08:39:10.495Z,101691.43
2019-03-21T08:41:43.543Z,101688.75
2019-03-21T08:44:16.735Z,101693.48
2019-03-21T08:46:50.045Z,101690.81
2019-03-21T08:49:23.085Z,101697.69
2019-03-21T08:51:56.245Z,101697.28
2019-03-21T08:55:15.824Z,101698.91
2019-03-21T09:04:32.265Z,101694.08
2019-03-21T09:05:59.576Z,101703.14
2019-03-21T09:09:04.794Z,101666.20
2019-03-21T09:23:18.175Z,101703.36
2019-03-21T09:26:03.025Z,101710.17
2019-03-21T09:28:57.554Z,101708.76
2019-03-21T09:31:30.465Z,101706.05
2019-03-21T09:41:56.003Z,101701.53
2019-03-21T09:45:07.485Z,101709.48
2019-03-21T09:52:01.718Z,101715.02
2019-03-21T10:01:23.675Z,101707.30
2019-03-21T10:03:58.655Z,101709.36
2019-03-21T10:06:37.206Z,101706.55
2019-03-21T10:09:10.385Z,101714.34
2019-03-21T10:11:43.407Z,101711.50
2019-03-21T10:14:25.044Z,101710.39
2019-03-21T10:17:14.079Z,101713.01
2019-03-21T10:19:56.696Z,101714.56
2019-03-21T10:22:34.555Z,101710.52
2019-03-21T10:25:16.275Z,101721.80
2019-03-21T10:28:00.136Z,101717.83
2019-03-21T10:30:38.375Z,101714.81
2019-03-21T10:33:13.148Z,101709.03
2019-03-21T10:35:49.155Z,101709.44
2019-03-21T10:38:22.313Z,101703.38
2019-03-21T10:40:55.325Z,101706.00
2019-03-21T10:43:28.285Z,101701.55
2019-03-21T10:46:04.995Z,101690.89
2019-03-21T10:48:38.235Z,101693.12
2019-03-21T10:51:11.763Z,101689.80
2019-03-21T10:53:44.775Z,101687.97
2019-03-21T10:56:17.763Z,101686.41
2019-03-21T10:58:55.326Z,101683.27
2019-03-21T11:01:28.313Z,101684.08
2019-03-21T11:04:07.453Z,101684.95
2019-03-21T11:06:40.740Z,101684.52
2019-03-21T11:09:14.247Z,101685.03
2019-03-21T11:11:47.265Z,101677.81
2019-03-21T11:14:30.754Z,101671.16
2019-03-21T11:17:03.875Z,101667.30
2019-03-21T11:19:38.505Z,101663.75
2019-03-21T11:22:14.165Z,101665.13
2019-03-21T11:24:47.214Z,101657.88
2019-03-21T11:27:20.305Z,101652.30
2019-03-21T11:29:53.455Z,101653.30
2019-03-21T11:32:26.487Z,101647.20
2019-03-21T11:34:59.515Z,101636.78
2019-03-21T11:37:32.556Z,101640.08
2019-03-21T11:40:05.565Z,101635.39
2019-03-21T11:42:38.875Z,101633.27
2019-03-21T11:45:12.620Z,101633.78
2019-03-21T11:47:45.951Z,101627.72
2019-03-21T11:50:19.099Z,101634.53
2019-03-21T11:52:52.578Z,101630.91
2019-03-21T11:55:25.776Z,101626.78
2019-03-21T11:57:59.295Z,101621.59
2019-03-21T12:00:42.969Z,101619.31
2019-03-21T12:03:07.671Z,101616.55
2019-03-21T12:05:40.706Z,101611.90
2019-03-21T12:08:14.084Z,101616.43
2019-03-21T12:10:47.195Z,101613.39
2019-03-21T12:13:20.354Z,101616.98
2019-03-21T12:15:53.394Z,101615.09
2019-03-21T12:18:27.485Z,101616.31
2019-03-21T12:21:00.565Z,101611.22
2019-03-21T12:23:33.835Z,101616.92
2019-03-21T12:26:06.845Z,101609.73
2019-03-21T12:28:40.139Z,101608.39
2019-03-21T12:31:13.215Z,101611.49
2019-03-21T12:33:46.296Z,101614.30
2019-03-21T12:36:19.467Z,101615.83
2019-03-21T12:38:52.635Z,101608.16
2019-03-21T12:41:25.745Z,101609.59
2019-03-21T12:43:58.768Z,101614.59
2019-03-21T12:46:31.865Z,101621.09
2019-03-21T12:49:05.166Z,101616.91
2019-03-21T12:51:38.175Z,101613.98
2019-03-21T12:54:11.303Z,101616.64
2019-03-21T12:56:44.392Z,101608.22
2019-03-21T12:59:17.525Z,101602.78
2019-03-21T13:01:50.806Z,101599.65
2019-03-21T13:04:24.005Z,101594.64
2019-03-21T13:06:57.205Z,101592.89
2019-03-21T13:09:30.324Z,101587.89
2019-03-21T13:12:03.555Z,101588.28
2019-03-21T13:14:41.606Z,101591.91
2019-03-21T13:17:14.705Z,101592.19
2019-03-21T13:19:47.746Z,101588.08
2019-03-21T13:22:20.935Z,101595.13
2019-03-21T13:25:03.205Z,101591.12
2019-03-21T13:27:36.269Z,101583.64
2019-03-21T13:30:09.656Z,101577.54
2019-03-21T13:32:42.615Z,101581.70
2019-03-21T13:35:16.487Z,101581.03
2019-03-21T13:37:49.416Z,101577.97
2019-03-21T13:40:23.147Z,101578.70
2019-03-21T13:42:56.225Z,101573.88
2019-03-21T13:45:29.405Z,101571.02
2019-03-21T13:48:02.576Z,101574.02
2019-03-21T13:50:35.739Z,101566.80
2019-03-21T13:53:18.221Z,101564.05
2019-03-21T13:55:44.044Z,101561.02
2019-03-21T13:58:17.125Z,101562.96
2019-03-21T14:00:50.186Z,101565.87
2019-03-21T14:03:25.312Z,101558.20
2019-03-21T14:05:58.191Z,101557.50
2019-03-21T14:08:31.093Z,101555.72
2019-03-21T14:11:04.185Z,101555.24
2019-03-21T14:13:37.255Z,101546.63
2019-03-21T14:16:10.876Z,101554.08
2019-03-21T14:18:43.846Z,101548.38
2019-03-21T14:21:16.815Z,101542.14
2019-03-21T14:23:49.965Z,101548.64
2019-03-21T14:26:23.096Z,101538.39
2019-03-21T14:28:56.505Z,101538.77
2019-03-21T14:31:29.557Z,101540.73
2019-03-21T14:34:02.815Z,101544.45
2019-03-21T14:36:36.134Z,101539.50
2019-03-21T14:39:09.555Z,101529.90
2019-03-21T14:41:42.645Z,101531.92
2019-03-21T14:44:15.786Z,101528.77
2019-03-21T14:46:48.831Z,101527.39
2019-03-21T14:49:22.969Z,101528.98
2019-03-21T14:51:56.497Z,101526.13
2019-03-21T14:54:29.652Z,101520.45
2019-03-21T14:57:03.065Z,101516.62
2019-03-21T14:59:36.205Z,101529.19
2019-03-21T15:02:16.364Z,101522.99
2019-03-21T15:04:49.585Z,101526.45
2019-03-21T15:07:24.185Z,101526.97
2019-03-21T15:09:57.325Z,101528.16
2019-03-21T15:12:30.434Z,101527.61
2019-03-21T15:15:03.466Z,101528.80
2019-03-21T15:17:37.925Z,101523.32
2019-03-21T15:20:12.975Z,101520.59
2019-03-21T15:22:46.357Z,101523.91
2019-03-21T15:25:19.675Z,101526.76
2019-03-21T15:27:52.845Z,101524.77
2019-03-21T15:30:26.065Z,101525.58
2019-03-21T15:32:59.106Z,101524.13
2019-03-21T15:35:32.166Z,101514.99
2019-03-21T15:38:05.213Z,101521.18
2019-03-21T15:40:38.131Z,101512.30
2019-03-21T15:43:11.165Z,101517.67
2019-03-21T15:45:44.235Z,101524.22
2019-03-21T15:48:17.254Z,101516.00
2019-03-21T15:50:50.585Z,101518.59
2019-03-21T15:53:24.951Z,101516.22
2019-03-21T15:55:58.345Z,101525.18
2019-03-21T15:58:32.515Z,101527.48
2019-03-21T16:01:05.764Z,101528.11
2019-03-21T16:03:38.955Z,101529.76
2019-03-21T16:06:16.604Z,101533.25
2019-03-21T16:08:52.883Z,101525.20
2019-03-21T16:11:25.916Z,101530.07
2019-03-21T16:13:59.376Z,101528.05
2019-03-21T16:16:32.735Z,101529.11
2019-03-21T16:19:05.795Z,101523.23
2019-03-21T16:21:39.006Z,101531.29
2019-03-21T16:24:12.216Z,101534.09
2019-03-21T16:26:45.189Z,101536.92
2019-03-21T16:29:18.666Z,101538.84
2019-03-21T16:31:52.485Z,101540.83
2019-03-21T16:34:25.715Z,101535.31
2019-03-21T16:36:58.847Z,101533.73
2019-03-21T16:39:32.619Z,101537.86
2019-03-21T16:42:05.610Z,101539.41
2019-03-21T16:44:38.755Z,101541.75
2019-03-21T16:47:11.768Z,101538.94
2019-03-21T16:49:46.255Z,101543.00
2019-03-21T16:52:20.257Z,101550.20
2019-03-21T16:54:53.395Z,101547.31
2019-03-21T16:57:26.684Z,101548.33
2019-03-21T17:00:06.547Z,101554.97
2019-03-21T17:02:43.276Z,101556.84
2019-03-21T17:05:16.705Z,101556.11
2019-03-21T17:07:49.974Z,101553.05
2019-03-21T17:10:24.072Z,101552.19
2019-03-21T17:12:57.459Z,101547.10
2019-03-21T17:15:31.898Z,101542.98
2019-03-21T17:18:14.120Z,101549.78
2019-03-21T17:20:55.838Z,101547.81
2019-03-21T17:23:29.693Z,101538.06
2019-03-21T17:26:04.632Z,101538.78
2019-03-21T17:28:40.555Z,101536.30
2019-03-21T17:31:14.365Z,101543.88
2019-03-21T17:33:49.762Z,101540.09
2019-03-21T17:36:22.996Z,101542.81
2019-03-21T17:38:56.125Z,101544.25
2019-03-21T17:41:29.226Z,101546.52
2019-03-21T17:44:02.355Z,101549.66
2019-03-21T17:46:35.415Z,101545.39
2019-03-21T17:49:08.461Z,101554.12
2019-03-21T17:51:42.565Z,101549.24
2019-03-21T17:54:15.480Z,101555.74
2019-03-21T17:56:48.827Z,101556.58
2019-03-21T17:59:21.965Z,101554.03
2019-03-21T18:01:56.215Z,101558.05
2019-03-21T18:04:29.485Z,101561.17
2019-03-21T18:07:02.665Z,101563.75
2019-03-21T18:09:35.874Z,101562.80
2019-03-21T18:12:09.365Z,101557.97
2019-03-21T18:14:42.377Z,101566.63
2019-03-21T18:17:15.795Z,101562.70
2019-03-21T18:19:48.845Z,101559.25
2019-03-21T18:22:22.786Z,101559.27
2019-03-21T18:24:56.455Z,101558.86
2019-03-21T18:27:29.925Z,101564.56
2019-03-21T18:30:03.294Z,101563.30
2019-03-21T18:32:36.836Z,101562.45
2019-03-21T18:35:10.115Z,101562.47
2019-03-21T18:37:45.705Z,101557.23
2019-03-21T18:40:18.755Z,101558.95
2019-03-21T18:42:51.976Z,101564.58
2019-03-21T18:45:25.047Z,101564.11
2019-03-21T18:47:58.177Z,101569.31
2019-03-21T18:50:31.205Z,101564.08
2019-03-21T18:53:04.246Z,101564.48
2019-03-21T18:55:37.265Z,101560.98
2019-03-21T18:58:10.307Z,101560.56
2019-03-21T19:00:44.325Z,101554.04
2019-03-21T19:03:17.386Z,101557.98
2019-03-21T19:05:50.635Z,101554.16
2019-03-21T19:08:24.785Z,101559.84
2019-03-21T19:10:57.818Z,101556.34
2019-03-21T19:13:30.866Z,101555.38
2019-03-21T19:16:04.275Z,101566.22
2019-03-21T19:18:37.195Z,101565.30
2019-03-21T19:21:10.165Z,101567.83
2019-03-21T19:23:43.857Z,101566.88
2019-03-21T19:26:16.885Z,101567.73
2019-03-21T19:28:49.879Z,101569.86
2019-03-21T19:31:22.893Z,101570.69
2019-03-21T19:33:56.075Z,101559.37
2019-03-21T19:36:29.046Z,101555.40
2019-03-21T19:39:02.197Z,101558.00
2019-03-21T19:41:36.304Z,101558.83
2019-03-21T19:44:09.756Z,101556.63
2019-03-21T19:46:42.795Z,101560.11
2019-03-21T19:49:15.955Z,101554.86
2019-03-21T19:51:48.788Z,101562.63
2019-03-21T19:54:21.835Z,101557.81
2019-03-21T19:56:54.845Z,101550.31
2019-03-21T19:59:29.085Z,101549.84
2019-03-21T20:02:02.186Z,101549.77
2019-03-21T20:04:35.305Z,101541.00
2019-03-21T20:07:08.344Z,101542.23
2019-03-21T20:09:41.384Z,101545.22
2019-03-21T20:12:14.406Z,101545.59
2019-03-21T20:14:47.314Z,101540.75
2019-03-21T20:17:21.504Z,101544.66
2019-03-21T20:19:54.687Z,101549.40
2019-03-21T20:22:27.836Z,101546.28
2019-03-21T20:25:01.341Z,101542.75
2019-03-21T20:27:34.459Z,101546.58
2019-03-21T20:30:09.156Z,101546.50
2019-03-21T20:32:42.076Z,101539.43
2019-03-21T20:35:15.306Z,101541.13
2019-03-21T20:37:48.508Z,101539.75
2019-03-21T20:40:22.305Z,101534.48
2019-03-21T20:42:55.386Z,101535.76
2019-03-21T20:45:28.610Z,101534.86
2019-03-21T20:48:01.735Z,101538.75
2019-03-21T20:50:34.836Z,101536.06
2019-03-21T20:53:07.806Z,101533.45
2019-03-21T20:55:40.875Z,101532.55
2019-03-21T20:58:13.926Z,101536.03
2019-03-21T21:00:46.835Z,101528.19
2019-03-21T21:03:20.086Z,101533.84
2019-03-21T21:05:53.100Z,101522.94
2019-03-21T21:08:27.043Z,101527.69
2019-03-21T21:11:01.175Z,101530.72
2019-03-21T21:13:34.505Z,101533.71
2019-03-21T21:16:07.665Z,101526.30
2019-03-21T21:18:40.655Z,101529.39
2019-03-21T21:21:13.706Z,101525.92
2019-03-21T21:23:46.865Z,101529.41
2019-03-21T21:26:20.354Z,101527.27
2019-03-21T21:28:54.149Z,101515.68
2019-03-21T21:31:27.284Z,101520.05
2019-03-21T21:34:00.505Z,101514.98
2019-03-21T21:36:33.573Z,101514.24
2019-03-21T21:39:08.685Z,101514.84
2019-03-21T21:41:41.815Z,101515.41
2019-03-21T21:44:15.016Z,101512.03
2019-03-21T21:46:48.175Z,101508.19
2019-03-21T21:49:21.245Z,101502.59
2019-03-21T21:51:54.875Z,101504.83
2019-03-21T21:54:28.560Z,101511.03
2019-03-21T21:57:01.606Z,101509.37
2019-03-21T21:59:34.575Z,101509.88
2019-03-21T22:02:07.625Z,101501.61
2019-03-21T22:04:40.493Z,101509.06
2019-03-21T22:07:13.485Z,101509.15
2019-03-21T22:09:46.824Z,101510.45
2019-03-21T22:12:20.735Z,101518.30
2019-03-21T22:14:55.155Z,101523.94
2019-03-21T22:17:28.315Z,101515.67
2019-03-21T22:20:01.356Z,101517.80
2019-03-21T22:22:34.605Z,101514.74
2019-03-21T22:25:08.335Z,101511.66
2019-03-21T22:27:41.325Z,101512.98
2019-03-21T22:30:14.785Z,101516.00
2019-03-21T22:32:47.888Z,101527.34
2019-03-21T22:35:20.915Z,101524.72
2019-03-21T22:37:54.995Z,101528.25
2019-03-21T22:40:28.264Z,101522.20
2019-03-21T22:43:01.259Z,101529.14
2019-03-21T22:45:34.416Z,101526.05
2019-03-21T22:48:07.578Z,101531.26
2019-03-21T22:50:40.555Z,101526.87
2019-03-21T22:53:13.613Z,101524.59
2019-03-21T22:55:46.654Z,101529.75
2019-03-21T22:58:31.185Z,101527.05
2019-03-21T23:00:56.028Z,101520.45
2019-03-21T23:03:29.325Z,101529.52
2019-03-21T23:06:02.346Z,101527.72
2019-03-21T23:08:35.105Z,101528.59
2019-03-21T23:11:08.624Z,101525.91
2019-03-21T23:13:42.395Z,101531.52
2019-03-21T23:16:15.585Z,101537.12
2019-03-21T23:18:48.819Z,101543.16
2019-03-21T23:21:21.936Z,101542.22
2019-03-21T23:23:55.225Z,101541.30
2019-03-21T23:26:28.295Z,101546.05
2019-03-21T23:29:01.558Z,101546.91
2019-03-21T23:31:34.775Z,101547.30
2019-03-21T23:34:08.035Z,101543.78
2019-03-21T23:36:41.245Z,101541.17
2019-03-21T23:39:14.309Z,101544.61
2019-03-21T23:41:47.393Z,101540.25
2019-03-21T23:44:20.385Z,101546.37
2019-03-21T23:46:53.656Z,101545.49
2019-03-21T23:49:26.774Z,101542.89
2019-03-21T23:52:00.034Z,101537.72
2019-03-21T23:54:33.125Z,101540.36
2019-03-21T23:57:06.648Z,101538.64
2019-03-21T23:59:39.699Z,101538.59
